Exeland, Wisconsin
Current Conditions -  °F | °C
As of 4:55 PM on Friday 28 Nov 2014 (Local Time) from KRCX Reporting Station
Broken Clouds Broken Clouds  
Wind Chill: -12°   Ceiling: 10000
Heat Index: -8°   Visibility: 10mi
Dew Point: -10°   Wind: 5mph
Humidity: 81%   Direction: 120°ESE
Pressure: 29.89"   Gusts: NA
Location:  45.67°N, 91.24°W
Report Text: KRCX 282255Z AUTO 12004KT 10SM BKN100 M08/M10 A2989 RMK AO2 T10771104
Loading
Personal Weather Stations






























Interactive Weather Map New forecast layout! Learn more

10-Day Weather Forecast

Advertisements
Track Severe Weather on mobile